createdAt,value
2019-03-31T00:00:37.522Z,100819.00
2019-03-31T00:03:07.016Z,100833.00
2019-03-31T00:05:37.469Z,100838.00
2019-03-31T00:08:07.096Z,100828.00
2019-03-31T00:10:36.753Z,100826.00
2019-03-31T00:13:06.179Z,100830.00
2019-03-31T00:15:35.691Z,100827.00
2019-03-31T00:18:05.436Z,100820.00
2019-03-31T00:20:34.887Z,100824.00
2019-03-31T00:23:04.412Z,100828.00
2019-03-31T00:25:34.103Z,100833.00
2019-03-31T00:28:05.066Z,100831.00
2019-03-31T00:30:34.531Z,100829.00
2019-03-31T00:33:03.980Z,100823.00
2019-03-31T00:35:33.434Z,100821.00
2019-03-31T00:38:02.898Z,100818.00
2019-03-31T00:40:32.328Z,100813.00
2019-03-31T00:43:01.777Z,100806.00
2019-03-31T00:45:31.321Z,100794.00
2019-03-31T00:48:00.762Z,100797.00
2019-03-31T00:50:30.189Z,100800.00
2019-03-31T00:52:59.656Z,100797.00
2019-03-31T00:55:29.109Z,100796.00
2019-03-31T00:57:58.537Z,100795.00
2019-03-31T01:00:48.809Z,100797.00
2019-03-31T01:03:21.032Z,100805.00
2019-03-31T01:05:50.695Z,100799.00
2019-03-31T01:08:20.567Z,100798.00
2019-03-31T01:10:50.187Z,100802.00
2019-03-31T01:13:20.353Z,100794.00
2019-03-31T01:15:50.697Z,100797.00
2019-03-31T01:18:20.341Z,100787.00
2019-03-31T01:20:49.866Z,100785.00
2019-03-31T01:23:19.341Z,100792.00
2019-03-31T01:25:48.825Z,100796.00
2019-03-31T01:28:18.207Z,100798.00
2019-03-31T01:30:49.727Z,100797.00
2019-03-31T01:33:19.361Z,100786.00
2019-03-31T01:35:48.880Z,100786.00
2019-03-31T01:38:19.175Z,100788.00
2019-03-31T01:40:48.790Z,100792.00
2019-03-31T01:43:18.240Z,100785.00
2019-03-31T01:45:47.779Z,100782.00
2019-03-31T01:48:17.281Z,100779.00
2019-03-31T01:50:47.186Z,100775.00
2019-03-31T01:53:16.641Z,100789.00
2019-03-31T01:55:46.333Z,100780.00
2019-03-31T01:58:15.959Z,100786.00
2019-03-31T02:00:47.591Z,100780.00
2019-03-31T02:03:17.414Z,100772.00
2019-03-31T02:05:46.879Z,100769.00
2019-03-31T02:08:16.357Z,100771.00
2019-03-31T02:10:45.785Z,100770.00
2019-03-31T02:13:15.242Z,100764.00
2019-03-31T02:15:44.961Z,100758.00
2019-03-31T02:18:14.408Z,100752.00
2019-03-31T02:20:43.825Z,100740.00
2019-03-31T02:23:13.329Z,100732.00
2019-03-31T02:25:42.782Z,100724.00
2019-03-31T02:28:12.241Z,100727.00
2019-03-31T02:30:41.796Z,100742.00
2019-03-31T02:33:11.219Z,100749.00
2019-03-31T02:35:40.668Z,100753.00
2019-03-31T02:38:10.121Z,100747.00
2019-03-31T02:40:39.569Z,100757.00
2019-03-31T02:43:09.025Z,100757.00
2019-03-31T02:45:38.491Z,100752.00
2019-03-31T02:48:07.938Z,100743.00
2019-03-31T02:50:47.967Z,100731.00
2019-03-31T02:53:20.794Z,100734.00
2019-03-31T02:55:51.142Z,100729.00
2019-03-31T02:58:21.527Z,100741.00
2019-03-31T03:00:51.294Z,100737.00
2019-03-31T03:03:21.526Z,100729.00
2019-03-31T03:05:51.142Z,100731.00
2019-03-31T03:08:21.405Z,100714.00
2019-03-31T03:10:52.833Z,100702.00
2019-03-31T03:13:25.513Z,100705.00
2019-03-31T03:16:11.015Z,100706.00
2019-03-31T03:18:40.498Z,100704.00
2019-03-31T03:21:09.954Z,100716.00
2019-03-31T03:23:39.372Z,100720.00
2019-03-31T03:26:08.850Z,100718.00
2019-03-31T03:28:38.311Z,100698.00
2019-03-31T03:31:14.367Z,100711.00
2019-03-31T03:33:38.972Z,100700.00
2019-03-31T03:36:08.416Z,100709.00
2019-03-31T03:38:37.878Z,100702.00
2019-03-31T03:41:07.354Z,100706.00
2019-03-31T03:43:54.286Z,100701.00
2019-03-31T03:46:07.980Z,100697.00
2019-03-31T03:48:37.444Z,100702.00
2019-03-31T03:51:06.959Z,100709.00
2019-03-31T03:53:36.412Z,100710.00
2019-03-31T03:56:06.520Z,100717.00
2019-03-31T03:58:35.968Z,100704.00
2019-03-31T04:01:07.466Z,100699.00
2019-03-31T04:03:36.941Z,100702.00
2019-03-31T04:06:06.382Z,100706.00
2019-03-31T04:08:35.804Z,100721.00
2019-03-31T04:11:14.543Z,100715.00
2019-03-31T04:13:44.125Z,100710.00
2019-03-31T04:16:13.702Z,100707.00
2019-03-31T04:18:43.179Z,100717.00
2019-03-31T04:21:12.767Z,100709.00
2019-03-31T04:23:42.318Z,100718.00
2019-03-31T04:26:11.777Z,100718.00
2019-03-31T04:28:41.214Z,100738.00
2019-03-31T04:31:10.678Z,100762.00
2019-03-31T04:33:50.450Z,100758.00
2019-03-31T04:36:11.438Z,100743.00
2019-03-31T04:38:41.562Z,100751.00
2019-03-31T04:41:11.104Z,100746.00
2019-03-31T04:43:40.558Z,100742.00
2019-03-31T04:46:10.000Z,100734.00
2019-03-31T04:48:39.477Z,100710.00
2019-03-31T04:51:08.934Z,100716.00
2019-03-31T04:53:38.374Z,100723.00
2019-03-31T04:56:07.837Z,100731.00
2019-03-31T04:58:37.285Z,100757.00
2019-03-31T05:01:06.735Z,100765.00
2019-03-31T05:03:36.221Z,100763.00
2019-03-31T05:06:05.847Z,100760.00
2019-03-31T05:08:35.296Z,100749.00
2019-03-31T05:11:04.918Z,100746.00
2019-03-31T05:13:34.355Z,100737.00
2019-03-31T05:16:03.813Z,100732.00
2019-03-31T05:18:33.262Z,100729.00
2019-03-31T05:21:02.695Z,100737.00
2019-03-31T05:23:32.128Z,100767.00
2019-03-31T05:26:01.606Z,100765.00
2019-03-31T05:28:31.060Z,100765.00
2019-03-31T05:31:00.505Z,100760.00
2019-03-31T05:33:30.134Z,100752.00
2019-03-31T05:35:59.581Z,100754.00
2019-03-31T05:38:29.007Z,100768.00
2019-03-31T05:40:58.639Z,100769.00
2019-03-31T05:43:28.069Z,100769.00
2019-03-31T05:45:57.520Z,100753.00
2019-03-31T05:48:26.983Z,100748.00
2019-03-31T05:50:56.432Z,100750.00
2019-03-31T05:53:25.878Z,100759.00
2019-03-31T05:55:55.372Z,100759.00
2019-03-31T05:58:24.807Z,100758.00
2019-03-31T06:00:54.629Z,100758.00
2019-03-31T06:03:24.653Z,100764.00
2019-03-31T06:05:54.099Z,100755.00
2019-03-31T06:08:23.528Z,100766.00
2019-03-31T06:10:53.020Z,100760.00
2019-03-31T06:13:22.484Z,100751.00
2019-03-31T06:15:51.916Z,100752.00
2019-03-31T06:18:21.399Z,100756.00
2019-03-31T06:20:50.847Z,100754.00
2019-03-31T06:23:20.294Z,100765.00
2019-03-31T06:25:49.765Z,100767.00
2019-03-31T06:28:19.212Z,100763.00
2019-03-31T06:30:48.632Z,100766.00
2019-03-31T06:33:18.115Z,100771.00
2019-03-31T06:35:47.547Z,100777.00
2019-03-31T06:38:17.004Z,100779.00
2019-03-31T06:40:48.487Z,100768.00
2019-03-31T06:43:18.073Z,100768.00
2019-03-31T06:45:47.516Z,100777.00
2019-03-31T06:48:16.991Z,100783.00
2019-03-31T06:50:46.611Z,100783.00
2019-03-31T06:53:16.034Z,100773.00
2019-03-31T06:55:45.501Z,100778.00
2019-03-31T06:58:14.930Z,100788.00
2019-03-31T07:00:44.373Z,100785.00
2019-03-31T07:03:14.473Z,100790.00
2019-03-31T07:05:43.947Z,100795.00
2019-03-31T07:08:13.400Z,100795.00
2019-03-31T07:10:42.885Z,100799.00
2019-03-31T07:13:12.292Z,100798.00
2019-03-31T07:15:41.739Z,100791.00
2019-03-31T07:18:11.209Z,100798.00
2019-03-31T07:20:40.635Z,100797.00
2019-03-31T07:23:10.226Z,100794.00
2019-03-31T07:25:39.697Z,100793.00
2019-03-31T07:28:09.152Z,100786.00
2019-03-31T07:30:38.594Z,100794.00
2019-03-31T07:33:08.072Z,100795.00
2019-03-31T07:35:39.100Z,100806.00
2019-03-31T07:38:08.795Z,100802.00
2019-03-31T07:40:38.264Z,100797.00
2019-03-31T07:43:07.803Z,100799.00
2019-03-31T07:45:37.271Z,100796.00
2019-03-31T07:48:08.238Z,100807.00
2019-03-31T07:50:37.891Z,100813.00
2019-03-31T07:53:07.345Z,100808.00
2019-03-31T07:55:36.795Z,100806.00
2019-03-31T07:58:06.330Z,100816.00
2019-03-31T08:00:35.810Z,100807.00
2019-03-31T08:03:05.244Z,100821.00
2019-03-31T08:05:37.558Z,100818.00
2019-03-31T08:08:05.876Z,100818.00
2019-03-31T08:10:35.491Z,100821.00
2019-03-31T08:13:04.975Z,100824.00
2019-03-31T08:15:34.411Z,100838.00
2019-03-31T08:18:03.901Z,100830.00
2019-03-31T08:20:33.359Z,100844.00
2019-03-31T08:23:02.860Z,100836.00
2019-03-31T08:25:32.290Z,100831.00
2019-03-31T08:28:01.746Z,100828.00
2019-03-31T08:30:31.228Z,100845.00
2019-03-31T08:33:00.657Z,100848.00
2019-03-31T08:35:30.111Z,100836.00
2019-03-31T08:37:59.575Z,100838.00
2019-03-31T08:40:29.031Z,100850.00
2019-03-31T08:42:58.491Z,100854.00
2019-03-31T08:45:30.450Z,100854.00
2019-03-31T08:47:59.144Z,100856.00
2019-03-31T08:50:28.601Z,100861.00
2019-03-31T08:52:58.061Z,100863.00
2019-03-31T08:55:27.549Z,100867.00
2019-03-31T08:57:57.010Z,100873.00
2019-03-31T09:00:30.845Z,100874.00
2019-03-31T09:03:00.302Z,100878.00
2019-03-31T09:05:29.790Z,100884.00
2019-03-31T09:07:59.232Z,100880.00
2019-03-31T09:10:28.715Z,100875.00
2019-03-31T09:12:58.172Z,100867.00
2019-03-31T09:15:27.627Z,100872.00
2019-03-31T09:17:57.108Z,100873.00
2019-03-31T09:20:26.538Z,100878.00
2019-03-31T09:22:56.031Z,100876.00
2019-03-31T09:25:25.482Z,100873.00
2019-03-31T09:27:54.969Z,100870.00
2019-03-31T09:30:24.470Z,100873.00
2019-03-31T09:32:53.961Z,100875.00
2019-03-31T09:35:23.466Z,100868.00
2019-03-31T09:37:52.906Z,100874.00
2019-03-31T09:40:22.527Z,100871.00
2019-03-31T09:42:51.979Z,100877.00
2019-03-31T09:45:21.448Z,100871.00
2019-03-31T09:47:50.902Z,100867.00
2019-03-31T09:50:21.079Z,100878.00
2019-03-31T09:52:50.524Z,100872.00
2019-03-31T09:55:22.929Z,100874.00
2019-03-31T09:57:51.217Z,100877.00
2019-03-31T10:00:45.666Z,100875.00
2019-03-31T10:03:15.387Z,100873.00
2019-03-31T10:05:47.927Z,100876.00
2019-03-31T10:08:16.584Z,100877.00
2019-03-31T10:10:46.101Z,100876.00
2019-03-31T10:13:15.599Z,100870.00
2019-03-31T10:15:45.026Z,100881.00
2019-03-31T10:18:17.865Z,100881.00
2019-03-31T10:20:45.671Z,100873.00
2019-03-31T10:23:15.162Z,100874.00
2019-03-31T10:25:44.641Z,100872.00
2019-03-31T10:28:14.203Z,100867.00
2019-03-31T10:30:43.820Z,100873.00
2019-03-31T10:33:13.276Z,100875.00
2019-03-31T10:35:42.780Z,100863.00
2019-03-31T10:38:12.246Z,100874.00
2019-03-31T10:40:41.731Z,100875.00
2019-03-31T10:43:11.173Z,100869.00
2019-03-31T10:45:40.611Z,100864.00
2019-03-31T10:48:20.368Z,100870.00
2019-03-31T10:50:41.253Z,100877.00
2019-03-31T10:53:10.778Z,100865.00
2019-03-31T10:55:40.281Z,100875.00
2019-03-31T10:58:09.732Z,100875.00
2019-03-31T11:00:39.444Z,100884.00
2019-03-31T11:03:09.688Z,100890.00
2019-03-31T11:05:39.531Z,100881.00
2019-03-31T11:08:09.007Z,100874.00
2019-03-31T11:10:38.668Z,100878.00
2019-03-31T11:13:08.317Z,100884.00
2019-03-31T11:15:37.745Z,100881.00
2019-03-31T11:18:07.235Z,100885.00
2019-03-31T11:20:36.662Z,100890.00
2019-03-31T11:23:07.817Z,100888.00
2019-03-31T11:25:38.814Z,100890.00
2019-03-31T11:28:08.271Z,100883.00
2019-03-31T11:30:37.817Z,100891.00
2019-03-31T11:33:07.722Z,100889.00
2019-03-31T11:35:37.373Z,100891.00
2019-03-31T11:38:06.864Z,100884.00
2019-03-31T11:40:36.349Z,100895.00
2019-03-31T11:43:05.955Z,100888.00
2019-03-31T11:45:35.408Z,100894.00
2019-03-31T11:48:04.905Z,100886.00
2019-03-31T11:50:34.386Z,100884.00
2019-03-31T11:53:03.988Z,100888.00
2019-03-31T11:55:33.449Z,100873.00
2019-03-31T11:58:03.013Z,100889.00
2019-03-31T12:00:34.110Z,100890.00
2019-03-31T12:03:03.564Z,100888.00
2019-03-31T12:05:33.121Z,100889.00
2019-03-31T12:08:02.560Z,100891.00
2019-03-31T12:10:32.008Z,100892.00
2019-03-31T12:13:01.513Z,100891.00
2019-03-31T12:15:30.950Z,100893.00
2019-03-31T12:18:00.394Z,100893.00
2019-03-31T12:20:29.920Z,100902.00
2019-03-31T12:22:59.317Z,100900.00
2019-03-31T12:25:28.824Z,100900.00
2019-03-31T12:27:58.257Z,100896.00
2019-03-31T12:30:28.918Z,100900.00
2019-03-31T12:32:59.159Z,100889.00
2019-03-31T12:35:28.677Z,100890.00
2019-03-31T12:37:58.131Z,100885.00
2019-03-31T12:40:37.981Z,100888.00
2019-03-31T12:43:07.453Z,100888.00
2019-03-31T12:45:36.899Z,100890.00
2019-03-31T12:48:06.597Z,100883.00
2019-03-31T12:50:36.087Z,100888.00
2019-03-31T12:53:05.704Z,100880.00
2019-03-31T12:55:35.170Z,100890.00
2019-03-31T12:58:04.624Z,100883.00
2019-03-31T13:00:34.075Z,100895.00
2019-03-31T13:03:03.537Z,100892.00
2019-03-31T13:05:32.999Z,100893.00
2019-03-31T13:08:02.464Z,100899.00
2019-03-31T13:10:31.914Z,100895.00
2019-03-31T13:13:01.384Z,100892.00
2019-03-31T13:15:30.851Z,100899.00
2019-03-31T13:18:00.417Z,100899.00
2019-03-31T13:20:29.870Z,100900.00
2019-03-31T13:22:59.340Z,100901.00
2019-03-31T13:25:28.807Z,100896.00
2019-03-31T13:27:58.262Z,100898.00
2019-03-31T13:30:27.759Z,100897.00
2019-03-31T13:32:57.217Z,100899.00
2019-03-31T13:35:26.703Z,100898.00
2019-03-31T13:38:10.019Z,100905.00
2019-03-31T13:40:27.376Z,100898.00
2019-03-31T13:42:56.831Z,100908.00
2019-03-31T13:45:26.295Z,100911.00
2019-03-31T13:47:58.481Z,100899.00
2019-03-31T13:50:26.957Z,100918.00
2019-03-31T13:52:56.418Z,100906.00
2019-03-31T13:55:26.204Z,100911.00
2019-03-31T13:58:03.243Z,100903.00
2019-03-31T14:00:41.036Z,100905.00
2019-03-31T14:03:10.756Z,100912.00
2019-03-31T14:05:40.409Z,100910.00
2019-03-31T14:08:09.924Z,100918.00
2019-03-31T14:10:39.384Z,100914.00
2019-03-31T14:13:08.860Z,100910.00
2019-03-31T14:15:38.290Z,100911.00
2019-03-31T14:18:07.793Z,100909.00
2019-03-31T14:20:37.280Z,100928.00
2019-03-31T14:23:06.771Z,100926.00
2019-03-31T14:25:36.241Z,100929.00
2019-03-31T14:28:05.929Z,100928.00
2019-03-31T14:30:35.330Z,100925.00
2019-03-31T14:33:04.764Z,100934.00
2019-03-31T14:35:37.824Z,100942.00
2019-03-31T14:38:05.504Z,100933.00
2019-03-31T14:40:34.972Z,100937.00
2019-03-31T14:43:04.427Z,100937.00
2019-03-31T14:45:35.492Z,100926.00
2019-03-31T14:48:05.266Z,100937.00
2019-03-31T14:50:39.142Z,100937.00
2019-03-31T14:53:09.033Z,100945.00
2019-03-31T14:55:38.992Z,100942.00
2019-03-31T14:58:09.120Z,100950.00
2019-03-31T15:00:38.546Z,100971.00
2019-03-31T15:03:08.169Z,100969.00
2019-03-31T15:05:37.812Z,100974.00
2019-03-31T15:08:07.239Z,100975.00
2019-03-31T15:10:37.293Z,100965.00
2019-03-31T15:13:06.750Z,100966.00
2019-03-31T15:15:36.215Z,100973.00
2019-03-31T15:18:05.771Z,100971.00
2019-03-31T15:20:35.254Z,100972.00
2019-03-31T15:23:04.814Z,100971.00
2019-03-31T15:25:35.063Z,100982.00
2019-03-31T15:28:04.590Z,100977.00
2019-03-31T15:30:34.028Z,100987.00
2019-03-31T15:33:04.601Z,100986.00
2019-03-31T15:35:37.391Z,100991.00
2019-03-31T15:38:05.234Z,100990.00
2019-03-31T15:40:34.756Z,100987.00
2019-03-31T15:43:04.494Z,100989.00
2019-03-31T15:45:33.969Z,100994.00
2019-03-31T15:48:03.433Z,101011.00
2019-03-31T15:50:32.891Z,100999.00
2019-03-31T15:53:02.390Z,101006.00
2019-03-31T15:55:31.841Z,101007.00
2019-03-31T15:58:01.299Z,101013.00
2019-03-31T16:00:30.769Z,101007.00
2019-03-31T16:03:00.243Z,101009.00
2019-03-31T16:05:29.679Z,101018.00
2019-03-31T16:07:59.182Z,101023.00
2019-03-31T16:10:28.631Z,101020.00
2019-03-31T16:12:58.091Z,101019.00
2019-03-31T16:15:27.578Z,101029.00
2019-03-31T16:17:57.651Z,101044.00
2019-03-31T16:20:27.928Z,101044.00
2019-03-31T16:22:57.417Z,101040.00
2019-03-31T16:25:30.941Z,101042.00
2019-03-31T16:28:00.390Z,101045.00
2019-03-31T16:30:30.343Z,101052.00
2019-03-31T16:32:59.789Z,101057.00
2019-03-31T16:35:29.250Z,101053.00
2019-03-31T16:37:58.721Z,101053.00
2019-03-31T16:40:28.155Z,101048.00
2019-03-31T16:42:59.640Z,101054.00
2019-03-31T16:45:29.144Z,101062.00
2019-03-31T16:47:58.613Z,101065.00
2019-03-31T16:50:28.051Z,101063.00
2019-03-31T16:52:57.516Z,101064.00
2019-03-31T16:55:26.950Z,101068.00
2019-03-31T16:57:57.931Z,101081.00
2019-03-31T17:00:27.458Z,101078.00
2019-03-31T17:02:56.898Z,101093.00
2019-03-31T17:05:26.331Z,101087.00
2019-03-31T17:07:55.796Z,101090.00
2019-03-31T17:10:25.332Z,101096.00
2019-03-31T17:12:54.790Z,101100.00
2019-03-31T17:15:24.301Z,101103.00
2019-03-31T17:17:53.805Z,101106.00
2019-03-31T17:20:23.265Z,101115.00
2019-03-31T17:22:52.743Z,101117.00
2019-03-31T17:25:22.198Z,101116.00
2019-03-31T17:27:51.651Z,101126.00
2019-03-31T17:30:21.308Z,101128.00
2019-03-31T17:32:50.761Z,101126.00
2019-03-31T17:35:20.211Z,101130.00
2019-03-31T17:37:49.688Z,101135.00
2019-03-31T17:40:19.149Z,101136.00
2019-03-31T17:42:48.583Z,101141.00
2019-03-31T17:45:18.075Z,101151.00
2019-03-31T17:47:47.476Z,101160.00
2019-03-31T17:50:18.559Z,101154.00
2019-03-31T17:52:48.002Z,101157.00
2019-03-31T17:55:17.495Z,101164.00
2019-03-31T17:57:46.900Z,101169.00
2019-03-31T18:00:16.756Z,101172.00
2019-03-31T18:02:47.071Z,101167.00
2019-03-31T18:05:16.534Z,101176.00
2019-03-31T18:07:46.019Z,101169.00
2019-03-31T18:10:21.246Z,101183.00
2019-03-31T18:12:46.721Z,101188.00
2019-03-31T18:15:16.586Z,101177.00
2019-03-31T18:17:46.060Z,101183.00
2019-03-31T18:20:15.508Z,101192.00
2019-03-31T18:22:44.935Z,101192.00
2019-03-31T18:25:14.537Z,101192.00
2019-03-31T18:27:46.135Z,101206.00
2019-03-31T18:30:16.291Z,101211.00
2019-03-31T18:32:45.779Z,101213.00
2019-03-31T18:35:16.976Z,101209.00
2019-03-31T18:37:46.392Z,101215.00
2019-03-31T18:40:15.921Z,101219.00
2019-03-31T18:42:45.379Z,101227.00
2019-03-31T18:45:15.033Z,101219.00
2019-03-31T18:47:44.524Z,101218.00
2019-03-31T18:50:14.317Z,101224.00
2019-03-31T18:52:43.753Z,101224.00
2019-03-31T18:55:14.941Z,101233.00
2019-03-31T18:57:46.035Z,101229.00
2019-03-31T19:00:21.813Z,101235.00
2019-03-31T19:02:58.920Z,101238.00
2019-03-31T19:05:41.640Z,101237.00
2019-03-31T19:08:12.728Z,101254.00
2019-03-31T19:10:49.791Z,101247.00
2019-03-31T19:13:18.215Z,101246.00
2019-03-31T19:15:49.376Z,101254.00
2019-03-31T19:18:23.239Z,101254.00
2019-03-31T19:20:54.339Z,101263.00
2019-03-31T19:23:28.214Z,101261.00
2019-03-31T19:26:15.811Z,101265.00
2019-03-31T19:28:47.797Z,101269.00
2019-03-31T19:31:22.037Z,101270.00
2019-03-31T19:34:09.447Z,101275.00
2019-03-31T19:36:52.437Z,101266.00
2019-03-31T19:39:35.724Z,101277.00
2019-03-31T19:42:21.894Z,101288.00
2019-03-31T19:45:01.959Z,101282.00
2019-03-31T19:47:42.624Z,101278.00
2019-03-31T19:50:32.282Z,101284.00
2019-03-31T19:53:19.475Z,101284.00
2019-03-31T19:55:50.603Z,101289.00
2019-03-31T19:58:38.017Z,101294.00
2019-03-31T20:01:14.854Z,101305.00
2019-03-31T20:04:04.183Z,101301.00
2019-03-31T20:06:50.145Z,101306.00
2019-03-31T20:09:23.927Z,101310.00
2019-03-31T20:12:00.898Z,101308.00
2019-03-31T20:14:31.971Z,101312.00
2019-03-31T20:17:17.819Z,101306.00
2019-03-31T20:20:05.096Z,101310.00
2019-03-31T20:22:42.251Z,101302.00
2019-03-31T20:25:13.337Z,101304.00
2019-03-31T20:27:46.863Z,101313.00
2019-03-31T20:30:20.888Z,101316.00
2019-03-31T20:32:58.181Z,101324.00
2019-03-31T20:35:45.842Z,101335.00
2019-03-31T20:38:16.916Z,101328.00
2019-03-31T20:41:00.061Z,101335.00
2019-03-31T20:43:31.181Z,101330.00
2019-03-31T20:46:04.108Z,101338.00
2019-03-31T20:48:32.016Z,101325.00
2019-03-31T20:51:01.472Z,101334.00
2019-03-31T20:53:30.921Z,101332.00
2019-03-31T20:56:00.504Z,101331.00
2019-03-31T20:58:29.936Z,101336.00
2019-03-31T21:00:59.558Z,101343.00
2019-03-31T21:03:29.034Z,101344.00
2019-03-31T21:05:58.487Z,101339.00
2019-03-31T21:08:28.009Z,101358.00
2019-03-31T21:10:57.853Z,101351.00
2019-03-31T21:13:27.544Z,101361.00
2019-03-31T21:15:57.057Z,101352.00
2019-03-31T21:18:26.452Z,101364.00
2019-03-31T21:20:55.873Z,101365.00
2019-03-31T21:23:25.353Z,101371.00
2019-03-31T21:25:54.825Z,101371.00
2019-03-31T21:28:24.256Z,101381.00
2019-03-31T21:30:53.733Z,101382.00
2019-03-31T21:33:23.191Z,101391.00
2019-03-31T21:35:52.632Z,101388.00
2019-03-31T21:38:22.102Z,101391.00
2019-03-31T21:40:51.552Z,101394.00
2019-03-31T21:43:21.017Z,101398.00
2019-03-31T21:45:50.496Z,101401.00
2019-03-31T21:48:20.020Z,101402.00
2019-03-31T21:50:49.494Z,101404.00
2019-03-31T21:53:18.948Z,101406.00
2019-03-31T21:55:48.397Z,101410.00
2019-03-31T21:58:17.906Z,101416.00
2019-03-31T22:00:51.868Z,101420.00
2019-03-31T22:03:21.469Z,101411.00
2019-03-31T22:05:50.944Z,101414.00
2019-03-31T22:08:20.379Z,101417.00
2019-03-31T22:10:49.840Z,101426.00
2019-03-31T22:13:19.361Z,101425.00
2019-03-31T22:15:49.150Z,101425.00
2019-03-31T22:18:18.581Z,101434.00
2019-03-31T22:20:48.055Z,101438.00
2019-03-31T22:23:18.991Z,101437.00
2019-03-31T22:25:48.441Z,101442.00
2019-03-31T22:28:17.897Z,101447.00
2019-03-31T22:30:47.325Z,101446.00
2019-03-31T22:33:16.751Z,101451.00
2019-03-31T22:35:47.846Z,101443.00
2019-03-31T22:38:17.290Z,101450.00
2019-03-31T22:40:46.730Z,101454.00
2019-03-31T22:43:16.198Z,101461.00
2019-03-31T22:45:45.625Z,101456.00
2019-03-31T22:48:15.077Z,101466.00
2019-03-31T22:50:44.564Z,101461.00
2019-03-31T22:53:14.027Z,101462.00
2019-03-31T22:55:43.432Z,101470.00
2019-03-31T22:58:12.885Z,101468.00
2019-03-31T23:00:42.395Z,101469.00
2019-03-31T23:03:11.856Z,101465.00
2019-03-31T23:05:41.320Z,101470.00
2019-03-31T23:08:10.763Z,101475.00
2019-03-31T23:10:40.189Z,101470.00
2019-03-31T23:13:09.846Z,101474.00
2019-03-31T23:15:39.295Z,101472.00
2019-03-31T23:18:08.741Z,101475.00
2019-03-31T23:20:38.200Z,101472.00
2019-03-31T23:23:07.648Z,101476.00
2019-03-31T23:25:37.127Z,101469.00
2019-03-31T23:28:06.644Z,101485.00
2019-03-31T23:30:36.071Z,101481.00
2019-03-31T23:33:05.523Z,101474.00
2019-03-31T23:35:35.069Z,101474.00
2019-03-31T23:38:04.516Z,101492.00
2019-03-31T23:40:33.954Z,101493.00
2019-03-31T23:43:03.410Z,101491.00
2019-03-31T23:45:34.201Z,101505.00
2019-03-31T23:48:03.610Z,101500.00
2019-03-31T23:50:33.083Z,101507.00
2019-03-31T23:53:02.524Z,101506.00
2019-03-31T23:55:31.942Z,101510.00
2019-03-31T23:58:01.409Z,101503.00
